createdAt,value
2022-10-18T00:01:42.452Z,17.10
2022-10-18T00:04:10.832Z,29.30
2022-10-18T00:06:42.598Z,28.60
2022-10-18T00:09:13.083Z,16.90
2022-10-18T00:11:41.508Z,17.50
2022-10-18T00:14:10.097Z,18.50
2022-10-18T00:16:38.571Z,21.70
2022-10-18T00:19:06.853Z,18.70
2022-10-18T00:21:35.146Z,16.30
2022-10-18T00:24:03.655Z,16.10
2022-10-18T00:26:32.249Z,18.60
2022-10-18T00:29:04.347Z,19.50
2022-10-18T00:31:38.716Z,17.70
2022-10-18T00:34:15.973Z,16.30
2022-10-18T00:36:45.369Z,21.00
2022-10-18T00:39:19.929Z,19.80
2022-10-18T00:41:49.241Z,18.80
2022-10-18T00:44:17.313Z,19.60
2022-10-18T00:46:48.255Z,16.80
2022-10-18T00:49:22.049Z,19.00
2022-10-18T00:52:04.154Z,20.00
2022-10-18T00:54:36.114Z,20.70
2022-10-18T00:57:05.496Z,19.50
2022-10-18T00:59:35.205Z,16.40
2022-10-18T01:02:05.024Z,19.80
2022-10-18T01:04:33.902Z,17.20
2022-10-18T01:07:17.573Z,17.20
2022-10-18T01:09:56.692Z,18.30
2022-10-18T01:13:07.145Z,16.60
2022-10-18T01:15:52.684Z,16.70
2022-10-18T01:18:33.038Z,20.00
2022-10-18T01:21:23.831Z,17.00
2022-10-18T01:24:22.398Z,16.40
2022-10-18T01:27:15.021Z,16.80
2022-10-18T01:30:20.441Z,22.60
2022-10-18T01:32:54.230Z,17.50
2022-10-18T01:35:30.958Z,21.80
2022-10-18T01:38:05.167Z,16.20
2022-10-18T01:40:35.479Z,19.20
2022-10-18T01:45:39.810Z,21.90
2022-10-18T01:48:10.914Z,18.20
2022-10-18T01:50:39.161Z,18.90
2022-10-18T01:53:25.586Z,20.80
2022-10-18T01:56:35.337Z,17.00
2022-10-18T01:59:09.204Z,18.60
2022-10-18T02:01:54.242Z,18.60
2022-10-18T02:04:48.662Z,22.80
2022-10-18T02:07:29.515Z,19.30
2022-10-18T02:12:44.561Z,21.90
2022-10-18T02:15:16.692Z,19.60
2022-10-18T02:17:47.297Z,22.50
2022-10-18T02:20:21.054Z,19.40
2022-10-18T02:22:52.211Z,18.70
2022-10-18T02:25:25.329Z,19.30
2022-10-18T02:27:56.750Z,20.60
2022-10-18T02:30:34.283Z,28.70
2022-10-18T02:33:30.885Z,29.00
2022-10-18T02:36:10.830Z,31.10
2022-10-18T02:38:42.007Z,32.10
2022-10-18T02:41:10.194Z,30.90
2022-10-18T02:43:38.413Z,26.80
2022-10-18T02:46:06.770Z,24.90
2022-10-18T02:48:35.064Z,30.20
2022-10-18T02:51:03.240Z,26.10
2022-10-18T02:53:31.418Z,43.00
2022-10-18T02:55:59.576Z,57.30
2022-10-18T02:58:27.755Z,47.20
2022-10-18T03:00:55.937Z,41.10
2022-10-18T03:03:24.191Z,35.60
2022-10-18T03:05:52.581Z,34.80
2022-10-18T03:08:23.049Z,33.20
2022-10-18T03:10:51.221Z,29.90
2022-10-18T03:13:20.225Z,27.00
2022-10-18T03:15:48.976Z,30.20
2022-10-18T03:18:17.206Z,26.90
2022-10-18T03:20:45.366Z,25.90
2022-10-18T03:23:13.600Z,27.80
2022-10-18T03:25:44.280Z,39.10
2022-10-18T03:28:14.706Z,29.90
2022-10-18T03:30:42.900Z,29.80
2022-10-18T03:33:11.011Z,25.10
2022-10-18T03:35:39.253Z,24.70
2022-10-18T03:38:07.577Z,26.20
2022-10-18T03:40:35.749Z,37.80
2022-10-18T03:43:03.982Z,24.20
2022-10-18T03:45:32.121Z,31.50
2022-10-18T03:48:00.298Z,26.90
2022-10-18T03:50:28.491Z,26.20
2022-10-18T03:52:56.744Z,28.00
2022-10-18T03:55:24.951Z,22.50
2022-10-18T03:57:53.141Z,23.60
2022-10-18T04:00:21.303Z,29.40
2022-10-18T04:02:52.082Z,27.80
2022-10-18T04:05:24.657Z,24.20
2022-10-18T04:07:52.880Z,21.90
2022-10-18T04:10:21.138Z,23.60
2022-10-18T04:12:49.333Z,20.60
2022-10-18T04:15:17.671Z,30.40
2022-10-18T04:17:45.884Z,25.40
2022-10-18T04:20:14.173Z,19.60
2022-10-18T04:22:42.422Z,20.50
2022-10-18T04:25:10.629Z,19.10
2022-10-18T04:27:38.814Z,24.00
2022-10-18T04:30:08.142Z,20.50
2022-10-18T04:32:36.278Z,24.40
2022-10-18T04:35:05.836Z,18.30
2022-10-18T04:37:34.434Z,18.90
2022-10-18T04:40:03.622Z,21.20
2022-10-18T04:42:31.987Z,26.60
2022-10-18T04:45:00.135Z,20.60
2022-10-18T04:47:28.523Z,18.40
2022-10-18T04:49:56.762Z,27.40
2022-10-18T04:52:25.481Z,18.00
2022-10-18T04:54:53.662Z,17.70
2022-10-18T04:57:21.943Z,20.30
2022-10-18T04:59:50.434Z,18.90
2022-10-18T05:02:18.982Z,16.10
2022-10-18T05:04:47.189Z,19.40
2022-10-18T05:07:15.480Z,20.00
2022-10-18T05:09:43.774Z,17.40
2022-10-18T05:12:11.955Z,17.80
2022-10-18T05:14:40.069Z,19.60
2022-10-18T05:17:08.282Z,19.10
2022-10-18T05:19:36.549Z,17.90
2022-10-18T05:22:04.709Z,16.00
2022-10-18T05:24:32.891Z,19.80
2022-10-18T05:27:01.299Z,19.90
2022-10-18T05:29:29.479Z,19.00
2022-10-18T05:31:57.683Z,16.80
2022-10-18T05:34:27.615Z,24.30
2022-10-18T05:36:55.752Z,24.50
2022-10-18T05:39:24.095Z,18.20
2022-10-18T05:41:52.421Z,19.50
2022-10-18T05:44:20.630Z,18.40
2022-10-18T05:46:48.743Z,18.30
2022-10-18T05:49:17.055Z,16.40
2022-10-18T05:51:45.265Z,16.60
2022-10-18T05:54:14.390Z,22.20
2022-10-18T05:56:42.818Z,17.80
2022-10-18T05:59:12.501Z,28.10
2022-10-18T06:01:42.993Z,21.90
2022-10-18T06:04:11.801Z,25.80
2022-10-18T06:06:40.090Z,27.70
2022-10-18T06:09:08.886Z,52.60
2022-10-18T06:11:37.404Z,35.40
2022-10-18T06:14:08.041Z,24.90
2022-10-18T06:19:05.745Z,33.60
2022-10-18T06:21:33.988Z,35.20
2022-10-18T06:24:02.258Z,38.10
2022-10-18T06:26:30.577Z,32.30
2022-10-18T06:28:58.879Z,24.90
2022-10-18T06:31:27.156Z,20.30
2022-10-18T06:34:01.056Z,24.80
2022-10-18T06:36:29.509Z,24.80
2022-10-18T06:38:57.937Z,23.80
2022-10-18T06:41:26.650Z,21.80
2022-10-18T06:43:57.765Z,18.20
2022-10-18T06:46:26.703Z,25.80
2022-10-18T06:48:54.986Z,46.50
2022-10-18T06:51:23.144Z,77.30
2022-10-18T06:54:06.145Z,45.40
2022-10-18T06:56:39.587Z,50.50
2022-10-18T06:59:07.906Z,45.70
2022-10-18T07:01:36.806Z,40.50
2022-10-18T07:04:05.087Z,39.80
2022-10-18T07:06:33.394Z,34.10
2022-10-18T07:09:03.359Z,45.60
2022-10-18T07:11:31.541Z,47.40
2022-10-18T07:14:03.479Z,48.30
2022-10-18T07:16:33.321Z,42.60
2022-10-18T07:19:01.696Z,34.10
2022-10-18T07:21:30.012Z,25.10
2022-10-18T07:23:58.301Z,18.50
2022-10-18T07:26:32.307Z,23.60
2022-10-18T07:29:10.235Z,22.00
2022-10-18T07:31:39.225Z,25.10
2022-10-18T07:34:10.561Z,22.40
2022-10-18T07:36:38.895Z,21.30
2022-10-18T07:39:07.480Z,28.60
2022-10-18T07:41:35.771Z,26.50
2022-10-18T07:44:04.753Z,29.90
2022-10-18T07:46:33.687Z,20.40
2022-10-18T07:49:02.308Z,15.00
2022-10-18T07:51:36.194Z,11.00
2022-10-18T07:54:04.480Z,11.20
2022-10-18T07:56:32.695Z,14.60
2022-10-18T07:59:00.829Z,11.50
2022-10-18T08:01:29.133Z,14.00
2022-10-18T08:03:57.501Z,12.10
2022-10-18T08:06:25.667Z,13.60
2022-10-18T08:08:53.828Z,14.70
2022-10-18T08:11:25.494Z,14.30
2022-10-18T08:13:54.119Z,13.90
2022-10-18T08:16:25.681Z,11.40
2022-10-18T08:18:54.506Z,11.40
2022-10-18T08:21:23.067Z,13.10
2022-10-18T08:23:51.861Z,15.80
2022-10-18T08:26:23.339Z,18.40
2022-10-18T08:29:17.427Z,14.70
2022-10-18T08:31:40.215Z,10.00
2022-10-18T08:34:08.451Z,13.00
2022-10-18T08:36:38.154Z,10.40
2022-10-18T08:39:06.351Z,14.90
2022-10-18T08:41:46.476Z,13.60
2022-10-18T08:44:23.172Z,16.40
2022-10-18T08:46:58.762Z,16.60
2022-10-18T08:49:32.398Z,14.10
2022-10-18T08:52:00.645Z,14.10
2022-10-18T08:54:38.150Z,14.50
2022-10-18T08:57:18.313Z,12.00
2022-10-18T08:59:46.541Z,8.90
2022-10-18T09:02:47.072Z,9.10
2022-10-18T09:06:04.783Z,18.60
2022-10-18T09:08:42.348Z,12.60
2022-10-18T09:11:27.705Z,10.40
2022-10-18T09:14:14.755Z,14.00
2022-10-18T09:16:45.769Z,9.30
2022-10-18T09:19:56.002Z,9.00
2022-10-18T09:22:53.574Z,10.30
2022-10-18T09:25:45.841Z,10.50
2022-10-18T09:28:16.135Z,15.50
2022-10-18T09:30:58.657Z,10.80
2022-10-18T09:33:44.926Z,11.10
2022-10-18T09:36:24.939Z,11.70
2022-10-18T09:38:59.946Z,12.10
2022-10-18T09:41:39.914Z,9.80
2022-10-18T09:44:37.766Z,10.10
2022-10-18T09:47:14.602Z,8.80
2022-10-18T09:49:52.862Z,9.80
2022-10-18T09:52:32.085Z,12.90
2022-10-18T09:55:06.806Z,9.80
2022-10-18T10:00:18.771Z,11.90
2022-10-18T10:02:47.085Z,11.80
2022-10-18T10:05:16.226Z,13.20
2022-10-18T10:07:48.160Z,7.50
2022-10-18T10:10:25.868Z,7.80
2022-10-18T10:13:03.336Z,10.90
2022-10-18T10:15:37.190Z,10.60
2022-10-18T10:18:21.830Z,8.60
2022-10-18T10:20:54.308Z,7.80
2022-10-18T10:23:26.863Z,13.30
2022-10-18T10:25:58.718Z,10.00
2022-10-18T10:28:30.618Z,10.50
2022-10-18T10:31:25.043Z,13.30
2022-10-18T10:34:01.338Z,7.60
2022-10-18T10:36:30.836Z,10.10
2022-10-18T10:39:13.851Z,13.40
2022-10-18T10:41:42.206Z,9.00
2022-10-18T10:44:16.965Z,8.20
2022-10-18T10:46:48.421Z,13.80
2022-10-18T10:49:42.702Z,8.90
2022-10-18T10:52:28.549Z,13.50
2022-10-18T10:55:11.118Z,8.60
2022-10-18T10:57:50.140Z,10.20
2022-10-18T11:00:45.784Z,10.10
2022-10-18T11:03:33.778Z,11.10
2022-10-18T11:06:02.380Z,10.70
2022-10-18T11:08:41.701Z,13.50
2022-10-18T11:11:22.151Z,11.50
2022-10-18T11:14:31.829Z,23.80
2022-10-18T11:17:18.162Z,16.30
2022-10-18T11:20:11.323Z,10.80
2022-10-18T11:22:58.481Z,16.20
2022-10-18T11:25:42.821Z,11.30
2022-10-18T11:28:26.118Z,9.20
2022-10-18T11:31:13.580Z,11.10
2022-10-18T11:34:08.164Z,14.80
2022-10-18T11:37:30.030Z,8.90
2022-10-18T11:40:44.989Z,12.70
2022-10-18T11:44:00.662Z,9.40
2022-10-18T11:46:46.174Z,11.40
2022-10-18T11:49:20.532Z,8.70
2022-10-18T11:55:00.665Z,13.10
2022-10-18T11:57:50.422Z,11.60
2022-10-18T12:00:34.036Z,10.40
2022-10-18T12:03:28.499Z,10.40
2022-10-18T12:06:02.199Z,11.30
2022-10-18T12:08:39.537Z,12.20
2022-10-18T12:11:18.099Z,13.30
2022-10-18T12:13:51.769Z,9.20
2022-10-18T12:16:45.661Z,9.50
2022-10-18T12:19:25.160Z,10.90
2022-10-18T12:22:14.929Z,9.50
2022-10-18T12:24:43.243Z,7.20
2022-10-18T12:27:15.310Z,13.20
2022-10-18T12:30:34.787Z,11.00
2022-10-18T12:33:27.790Z,11.00
2022-10-18T12:36:29.138Z,10.50
2022-10-18T12:39:01.338Z,9.90
2022-10-18T12:41:32.833Z,7.10
2022-10-18T12:44:30.756Z,9.70
2022-10-18T12:47:02.730Z,9.80
2022-10-18T12:49:36.740Z,13.80
2022-10-18T12:52:30.747Z,8.90
2022-10-18T12:55:18.445Z,10.50
2022-10-18T12:57:52.885Z,8.70
2022-10-18T13:00:30.626Z,8.10
2022-10-18T13:03:24.996Z,10.80
2022-10-18T13:05:55.225Z,14.30
2022-10-18T13:08:27.325Z,9.20
2022-10-18T13:11:01.567Z,12.20
2022-10-18T13:13:48.580Z,11.20
2022-10-18T13:16:23.019Z,9.40
2022-10-18T13:18:57.501Z,10.90
2022-10-18T13:21:42.588Z,7.20
2022-10-18T13:24:42.202Z,10.20
2022-10-18T13:27:36.024Z,11.50
2022-10-18T13:30:17.186Z,10.80
2022-10-18T13:33:23.159Z,10.70
2022-10-18T13:36:04.475Z,9.90
2022-10-18T13:38:38.675Z,8.30
2022-10-18T13:41:06.856Z,11.90
2022-10-18T13:43:53.491Z,11.20
2022-10-18T13:46:24.886Z,9.40
2022-10-18T13:48:58.923Z,9.00
2022-10-18T13:51:49.133Z,9.70
2022-10-18T13:54:46.726Z,7.80
2022-10-18T13:57:20.644Z,10.80
2022-10-18T14:00:07.759Z,9.50
2022-10-18T14:03:00.471Z,10.60
2022-10-18T14:05:47.713Z,8.10
2022-10-18T14:08:22.352Z,8.80
2022-10-18T14:11:05.554Z,11.60
2022-10-18T14:13:46.132Z,11.00
2022-10-18T14:16:27.376Z,12.10
2022-10-18T14:19:18.805Z,11.80
2022-10-18T14:22:14.083Z,14.70
2022-10-18T14:27:17.877Z,13.00
2022-10-18T14:29:48.218Z,12.60
2022-10-18T14:32:30.000Z,17.80
2022-10-18T14:35:30.513Z,10.50
2022-10-18T14:37:49.150Z,15.90
2022-10-18T14:40:29.372Z,76.00
2022-10-18T14:43:21.988Z,55.30
2022-10-18T14:45:50.222Z,83.80
2022-10-18T14:48:22.871Z,73.20
2022-10-18T14:51:00.483Z,62.20
2022-10-18T14:53:36.528Z,46.40
2022-10-18T14:56:07.592Z,45.10
2022-10-18T14:58:38.390Z,39.80
2022-10-18T15:01:06.646Z,40.70
2022-10-18T15:03:36.043Z,39.20
2022-10-18T15:06:05.988Z,60.00
2022-10-18T15:08:41.450Z,52.30
2022-10-18T15:11:14.470Z,42.40
2022-10-18T15:14:14.778Z,40.80
2022-10-18T15:16:43.140Z,39.00
2022-10-18T15:19:14.322Z,40.30
2022-10-18T15:22:19.784Z,66.60
2022-10-18T15:24:44.847Z,58.60
2022-10-18T15:27:32.162Z,41.90
2022-10-18T15:30:23.158Z,36.70
2022-10-18T15:32:55.129Z,30.90
2022-10-18T15:35:29.441Z,35.80
2022-10-18T15:38:02.721Z,32.90
2022-10-18T15:40:34.678Z,41.40
2022-10-18T15:43:06.186Z,45.20
2022-10-18T15:45:38.239Z,51.10
2022-10-18T15:48:06.399Z,57.90
2022-10-18T15:50:42.350Z,46.60
2022-10-18T15:53:23.201Z,35.90
2022-10-18T15:55:58.183Z,32.10
2022-10-18T15:58:32.243Z,42.30
2022-10-18T16:01:01.427Z,42.20
2022-10-18T16:03:34.176Z,73.40
2022-10-18T16:06:08.088Z,55.80
2022-10-18T16:08:41.145Z,59.30
2022-10-18T16:11:16.145Z,83.50
2022-10-18T16:13:45.259Z,151.90
2022-10-18T16:16:21.256Z,216.40
2022-10-18T16:18:50.491Z,198.20
2022-10-18T16:21:31.748Z,154.60
2022-10-18T16:24:00.046Z,126.30
2022-10-18T16:26:29.598Z,117.00
2022-10-18T16:28:59.196Z,123.70
2022-10-18T16:31:30.959Z,107.50
2022-10-18T16:33:59.936Z,99.20
2022-10-18T16:36:33.582Z,78.10
2022-10-18T16:39:07.888Z,56.70
2022-10-18T16:41:36.032Z,55.80
2022-10-18T16:44:04.422Z,51.50
2022-10-18T16:46:34.567Z,44.50
2022-10-18T16:49:03.695Z,51.00
2022-10-18T16:51:31.944Z,42.40
2022-10-18T16:54:00.066Z,41.30
2022-10-18T16:56:33.926Z,33.60
2022-10-18T16:59:02.237Z,35.30
2022-10-18T17:01:30.644Z,33.30
2022-10-18T17:03:58.866Z,32.60
2022-10-18T17:06:33.217Z,37.20
2022-10-18T17:09:01.414Z,49.50
2022-10-18T17:11:30.694Z,36.80
2022-10-18T17:13:59.010Z,40.70
2022-10-18T17:19:06.876Z,31.30
2022-10-18T17:21:35.585Z,35.20
2022-10-18T17:24:06.377Z,34.80
2022-10-18T17:26:34.640Z,35.00
2022-10-18T17:29:08.421Z,35.20
2022-10-18T17:31:36.897Z,32.30
2022-10-18T17:34:05.842Z,29.40
2022-10-18T17:36:34.841Z,30.10
2022-10-18T17:39:03.999Z,32.80
2022-10-18T17:41:32.254Z,30.70
2022-10-18T17:44:03.907Z,28.00
2022-10-18T17:46:32.190Z,28.00
2022-10-18T17:49:00.401Z,25.90
2022-10-18T17:51:28.638Z,29.70
2022-10-18T17:53:56.890Z,23.90
2022-10-18T17:56:27.387Z,26.70
2022-10-18T17:58:55.519Z,43.60
2022-10-18T18:01:24.183Z,35.90
2022-10-18T18:04:01.343Z,38.30
2022-10-18T18:06:34.150Z,42.60
2022-10-18T18:09:16.243Z,37.40
2022-10-18T18:11:48.384Z,35.00
2022-10-18T18:14:16.709Z,31.00
2022-10-18T18:16:46.874Z,35.10
2022-10-18T18:19:19.155Z,43.00
2022-10-18T18:21:48.166Z,36.80
2022-10-18T18:24:17.466Z,42.70
2022-10-18T18:26:45.686Z,42.70
2022-10-18T18:29:13.943Z,47.50
2022-10-18T18:31:43.925Z,38.80
2022-10-18T18:34:12.545Z,43.10
2022-10-18T18:36:41.922Z,39.70
2022-10-18T18:39:35.469Z,39.10
2022-10-18T18:42:04.434Z,40.40
2022-10-18T18:44:34.165Z,46.20
2022-10-18T18:47:02.584Z,53.30
2022-10-18T18:49:31.748Z,53.50
2022-10-18T18:52:00.281Z,58.60
2022-10-18T18:54:30.047Z,50.20
2022-10-18T18:56:58.517Z,51.20
2022-10-18T18:59:26.786Z,41.80
2022-10-18T19:01:55.040Z,46.60
2022-10-18T19:04:23.266Z,65.70
2022-10-18T19:06:51.473Z,50.10
2022-10-18T19:09:22.961Z,51.00
2022-10-18T19:11:55.878Z,48.00
2022-10-18T19:14:26.332Z,45.90
2022-10-18T19:17:01.822Z,39.10
2022-10-18T19:19:31.835Z,35.60
2022-10-18T19:22:03.741Z,41.00
2022-10-18T19:24:33.093Z,39.60
2022-10-18T19:27:12.707Z,35.20
2022-10-18T19:29:41.098Z,32.20
2022-10-18T19:32:13.477Z,31.10
2022-10-18T19:34:41.651Z,30.40
2022-10-18T19:37:12.335Z,27.70
2022-10-18T19:39:40.637Z,27.00
2022-10-18T19:42:21.171Z,29.10
2022-10-18T19:44:54.563Z,29.50
2022-10-18T19:47:23.237Z,28.70
2022-10-18T19:49:52.937Z,34.00
2022-10-18T19:52:21.150Z,27.20
2022-10-18T19:54:49.541Z,25.30
2022-10-18T19:57:17.706Z,26.70
2022-10-18T19:59:46.050Z,26.20
2022-10-18T20:02:15.293Z,24.60
2022-10-18T20:04:43.490Z,31.70
2022-10-18T20:07:11.696Z,29.40
2022-10-18T20:09:40.052Z,26.80
2022-10-18T20:12:08.998Z,33.90
2022-10-18T20:14:37.221Z,25.00
2022-10-18T20:17:06.536Z,28.30
2022-10-18T20:19:34.726Z,32.00
2022-10-18T20:22:03.038Z,27.90
2022-10-18T20:24:31.275Z,38.50
2022-10-18T20:26:59.484Z,27.50
2022-10-18T20:29:27.791Z,25.30
2022-10-18T20:31:55.980Z,28.50
2022-10-18T20:34:26.557Z,33.40
2022-10-18T20:36:55.595Z,26.40
2022-10-18T20:39:23.962Z,29.00
2022-10-18T20:41:52.338Z,31.00
2022-10-18T20:44:22.880Z,29.90
2022-10-18T20:46:51.169Z,31.20
2022-10-18T20:49:19.802Z,34.40
2022-10-18T20:51:48.086Z,32.90
2022-10-18T20:54:16.252Z,25.30
2022-10-18T20:56:44.470Z,27.30
2022-10-18T20:59:13.967Z,26.00
2022-10-18T21:01:42.276Z,26.10
2022-10-18T21:04:11.052Z,33.60
2022-10-18T21:06:44.426Z,34.90
2022-10-18T21:09:15.731Z,25.00
2022-10-18T21:11:47.449Z,28.70
2022-10-18T21:14:18.883Z,20.50
2022-10-18T21:16:48.439Z,22.80
2022-10-18T21:19:26.088Z,13.10
2022-10-18T21:21:56.823Z,23.50
2022-10-18T21:24:26.555Z,17.90
2022-10-18T21:26:55.080Z,4.80
2022-10-18T21:29:27.144Z,4.70
2022-10-18T21:31:59.656Z,4.70
2022-10-18T21:34:27.952Z,8.40
2022-10-18T21:36:56.270Z,13.20
2022-10-18T21:41:57.683Z,5.90
2022-10-18T21:44:26.086Z,6.30
2022-10-18T21:46:55.327Z,2.00
2022-10-18T21:49:25.186Z,6.10
2022-10-18T21:51:53.540Z,12.70
2022-10-18T21:54:21.678Z,4.50
2022-10-18T21:56:51.300Z,4.90
2022-10-18T21:59:20.068Z,46.20
2022-10-18T22:01:48.477Z,8.70
2022-10-18T22:04:22.651Z,4.50
2022-10-18T22:06:52.015Z,8.90
2022-10-18T22:09:21.479Z,18.40
2022-10-18T22:11:53.268Z,16.30
2022-10-18T22:14:22.273Z,7.50
2022-10-18T22:16:51.207Z,6.40
2022-10-18T22:19:20.489Z,4.00
2022-10-18T22:21:48.898Z,13.70
2022-10-18T22:24:17.843Z,4.00
2022-10-18T22:26:47.087Z,5.20
2022-10-18T22:29:21.322Z,4.40
2022-10-18T22:31:52.250Z,3.90
2022-10-18T22:34:23.866Z,6.50
2022-10-18T22:36:52.067Z,6.00
2022-10-18T22:39:20.481Z,2.70
2022-10-18T22:41:54.497Z,10.90
2022-10-18T22:44:23.241Z,9.20
2022-10-18T22:46:51.394Z,7.60
2022-10-18T22:49:19.585Z,7.40
2022-10-18T22:51:47.782Z,11.70
2022-10-18T22:54:16.114Z,12.70
2022-10-18T22:56:44.355Z,15.00
2022-10-18T22:59:12.481Z,12.00
2022-10-18T23:01:40.670Z,10.20
2022-10-18T23:04:10.620Z,21.00
2022-10-18T23:06:40.199Z,15.50
2022-10-18T23:09:11.066Z,15.00
2022-10-18T23:11:39.289Z,5.10
2022-10-18T23:14:07.455Z,3.00
2022-10-18T23:16:36.809Z,14.60
2022-10-18T23:19:05.430Z,11.70
2022-10-18T23:21:34.477Z,10.30
2022-10-18T23:24:03.640Z,8.40
2022-10-18T23:26:32.853Z,8.90
2022-10-18T23:29:01.232Z,19.40
2022-10-18T23:31:32.936Z,8.00
2022-10-18T23:34:04.347Z,13.00
2022-10-18T23:36:34.193Z,16.10
2022-10-18T23:39:04.588Z,7.20
2022-10-18T23:41:33.172Z,6.80
2022-10-18T23:44:02.666Z,10.20
2022-10-18T23:46:30.909Z,7.60
2022-10-18T23:48:59.112Z,4.90
2022-10-18T23:51:27.326Z,5.30
2022-10-18T23:53:55.512Z,8.10
2022-10-18T23:56:23.778Z,6.10
2022-10-18T23:58:51.956Z,3.80
